createdAt,value
2022-12-01T00:01:19.624Z,0.73
2022-12-01T00:04:22.215Z,0.72
2022-12-01T00:07:24.843Z,0.80
2022-12-01T00:10:28.403Z,0.82
2022-12-01T00:13:31.175Z,0.84
2022-12-01T00:16:34.329Z,0.78
2022-12-01T00:19:37.443Z,0.77
2022-12-01T00:22:46.742Z,0.74
2022-12-01T00:25:49.886Z,0.77
2022-12-01T00:28:55.901Z,0.78
2022-12-01T00:31:58.930Z,0.82
2022-12-01T00:35:02.329Z,0.76
2022-12-01T00:38:05.414Z,0.78
2022-12-01T00:41:08.323Z,0.81
2022-12-01T00:44:11.327Z,0.81
2022-12-01T00:47:14.552Z,0.81
2022-12-01T00:50:17.380Z,0.81
2022-12-01T00:53:20.221Z,0.82
2022-12-01T00:56:23.211Z,0.73
2022-12-01T00:59:26.423Z,0.66
2022-12-01T01:02:30.004Z,0.65
2022-12-01T01:05:36.339Z,0.65
2022-12-01T01:08:39.936Z,0.61
2022-12-01T01:11:42.756Z,0.68
2022-12-01T01:14:45.901Z,0.74
2022-12-01T01:17:48.487Z,0.83
2022-12-01T01:21:03.803Z,0.75
2022-12-01T01:24:06.600Z,0.64
2022-12-01T01:27:09.486Z,0.66
2022-12-01T01:30:13.223Z,0.68
2022-12-01T01:33:16.185Z,0.64
2022-12-01T01:36:19.619Z,0.65
2022-12-01T01:39:22.379Z,0.53
2022-12-01T01:42:24.995Z,0.50
2022-12-01T01:45:29.947Z,0.43
2022-12-01T01:48:36.556Z,0.30
2022-12-01T01:51:41.810Z,0.24
2022-12-01T01:54:48.039Z,0.14
2022-12-01T01:57:51.221Z,0.16
2022-12-01T02:00:53.795Z,0.22
2022-12-01T02:03:57.175Z,0.24
2022-12-01T02:07:00.081Z,0.24
2022-12-01T02:10:02.970Z,0.18
2022-12-01T02:13:27.813Z,0.14
2022-12-01T02:16:36.708Z,0.22
2022-12-01T02:20:25.666Z,0.21
2022-12-01T02:24:10.027Z,0.23
2022-12-01T02:30:53.729Z,0.16
2022-12-01T02:34:25.502Z,0.19
2022-12-01T02:37:40.904Z,0.24
2022-12-01T02:41:08.057Z,0.17
2022-12-01T02:44:27.839Z,0.20
2022-12-01T02:47:31.405Z,0.22
2022-12-01T02:50:35.974Z,0.14
2022-12-01T02:53:38.848Z,0.10
2022-12-01T02:56:45.192Z,0.04
2022-12-01T02:59:52.033Z,0.02
2022-12-01T03:03:46.242Z,-0.02
2022-12-01T03:07:27.250Z,-0.11
2022-12-01T03:10:53.148Z,-0.07
2022-12-01T03:14:04.966Z,-0.09
2022-12-01T03:17:14.700Z,-0.09
2022-12-01T03:20:32.230Z,0.03
2022-12-01T03:23:38.756Z,0.07
2022-12-01T03:26:46.103Z,0.06
2022-12-01T03:29:51.968Z,0.09
2022-12-01T03:33:01.279Z,0.20
2022-12-01T03:36:28.934Z,0.25
2022-12-01T03:39:34.815Z,0.17
2022-12-01T03:42:49.688Z,0.17
2022-12-01T03:46:10.621Z,0.24
2022-12-01T03:49:17.436Z,0.30
2022-12-01T03:52:40.983Z,0.36
2022-12-01T03:55:47.124Z,0.36
2022-12-01T03:58:52.686Z,0.40
2022-12-01T04:01:55.463Z,0.39
2022-12-01T04:04:57.986Z,0.37
2022-12-01T04:08:01.457Z,0.42
2022-12-01T04:11:32.248Z,0.38
2022-12-01T04:14:35.451Z,0.31
2022-12-01T04:17:39.103Z,0.28
2022-12-01T04:20:43.620Z,0.30
2022-12-01T04:24:01.050Z,0.28
2022-12-01T04:27:03.992Z,0.27
2022-12-01T04:30:08.045Z,0.21
2022-12-01T04:33:10.702Z,0.17
2022-12-01T04:36:13.080Z,0.10
2022-12-01T04:39:16.224Z,-0.01
2022-12-01T04:42:18.771Z,-0.05
2022-12-01T04:45:21.428Z,-0.11
2022-12-01T04:48:24.095Z,-0.10
2022-12-01T04:51:26.849Z,-0.17
2022-12-01T04:54:29.742Z,-0.18
2022-12-01T04:57:32.377Z,-0.23
2022-12-01T05:00:35.130Z,-0.31
2022-12-01T05:03:39.732Z,-0.37
2022-12-01T05:06:42.828Z,-0.37
2022-12-01T05:09:45.591Z,-0.32
2022-12-01T05:12:48.347Z,-0.35
2022-12-01T05:15:51.269Z,-0.29
2022-12-01T05:19:16.258Z,-0.39
2022-12-01T05:22:36.394Z,-0.39
2022-12-01T05:25:43.363Z,-0.30
2022-12-01T05:28:46.453Z,-0.29
2022-12-01T05:31:49.228Z,-0.32
2022-12-01T05:34:52.059Z,-0.41
2022-12-01T05:37:54.790Z,-0.46
2022-12-01T05:40:57.680Z,-0.51
2022-12-01T05:44:00.202Z,-0.46
2022-12-01T05:47:03.106Z,-0.38
2022-12-01T05:50:06.437Z,-0.40
2022-12-01T05:53:11.830Z,-0.40
2022-12-01T05:56:15.003Z,-0.43
2022-12-01T05:59:17.695Z,-0.47
2022-12-01T06:02:20.405Z,-0.51
2022-12-01T06:05:23.295Z,-0.53
2022-12-01T06:08:25.982Z,-0.57
2022-12-01T06:11:28.826Z,-0.47
2022-12-01T06:14:31.568Z,-0.52
2022-12-01T06:17:39.773Z,-0.47
2022-12-01T06:20:42.984Z,-0.38
2022-12-01T06:23:45.574Z,-0.29
2022-12-01T06:26:48.069Z,-0.19
2022-12-01T06:29:51.163Z,-0.10
2022-12-01T06:32:53.915Z,0.04
2022-12-01T06:36:04.893Z,0.57
2022-12-01T06:39:10.130Z,1.31
2022-12-01T06:42:12.676Z,2.15
2022-12-01T06:45:15.467Z,2.88
2022-12-01T06:48:17.860Z,3.57
2022-12-01T06:51:20.530Z,3.91
2022-12-01T06:54:23.083Z,4.54
2022-12-01T06:57:26.408Z,5.34
2022-12-01T07:00:29.336Z,6.14
2022-12-01T07:03:31.963Z,6.88
2022-12-01T07:06:34.956Z,7.42
2022-12-01T07:09:38.906Z,7.72
2022-12-01T07:12:42.623Z,8.54
2022-12-01T07:15:45.103Z,9.28
2022-12-01T07:18:47.976Z,9.59
2022-12-01T07:21:50.591Z,9.73
2022-12-01T07:24:53.322Z,10.20
2022-12-01T07:27:56.674Z,10.78
2022-12-01T07:31:07.646Z,11.35
2022-12-01T07:34:13.336Z,11.48
2022-12-01T07:37:15.943Z,11.63
2022-12-01T07:40:18.855Z,11.61
2022-12-01T07:43:21.414Z,12.00
2022-12-01T07:46:26.637Z,12.18
2022-12-01T07:49:29.459Z,12.42
2022-12-01T07:52:32.596Z,12.93
2022-12-01T07:55:35.122Z,12.75
2022-12-01T07:58:38.084Z,12.91
2022-12-01T08:01:44.436Z,12.67
2022-12-01T08:04:49.962Z,13.07
2022-12-01T08:07:59.423Z,13.72
2022-12-01T08:11:06.748Z,13.29
2022-12-01T08:14:09.465Z,13.19
2022-12-01T08:17:12.021Z,13.02
2022-12-01T08:20:20.821Z,13.20
2022-12-01T08:23:26.196Z,13.13
2022-12-01T08:26:29.322Z,12.68
2022-12-01T08:29:31.910Z,13.32
2022-12-01T08:32:34.688Z,12.93
2022-12-01T08:35:37.293Z,12.91
2022-12-01T08:38:40.047Z,13.28
2022-12-01T08:41:42.766Z,13.91
2022-12-01T08:44:45.364Z,14.28
2022-12-01T08:47:48.202Z,14.16
2022-12-01T08:50:50.758Z,13.42
2022-12-01T08:53:55.415Z,13.82
2022-12-01T08:56:57.949Z,13.38
2022-12-01T09:00:00.602Z,13.66
2022-12-01T09:03:03.510Z,13.81
2022-12-01T09:06:08.972Z,14.03
2022-12-01T09:09:14.607Z,14.03
2022-12-01T09:12:17.439Z,14.53
2022-12-01T09:15:20.192Z,15.20
2022-12-01T09:18:22.988Z,15.05
2022-12-01T09:21:28.623Z,15.18
2022-12-01T09:24:31.662Z,15.08
2022-12-01T09:27:34.195Z,15.42
2022-12-01T09:30:37.180Z,15.94
2022-12-01T09:33:40.496Z,15.65
2022-12-01T09:36:44.315Z,15.92
2022-12-01T09:39:47.017Z,16.08
2022-12-01T09:42:50.307Z,15.76
2022-12-01T09:45:59.099Z,16.00
2022-12-01T09:49:04.243Z,15.42
2022-12-01T09:52:12.775Z,14.61
2022-12-01T09:55:17.774Z,13.41
2022-12-01T09:58:26.387Z,13.68
2022-12-01T10:01:42.801Z,13.97
2022-12-01T10:04:48.914Z,13.78
2022-12-01T10:08:07.342Z,14.24
2022-12-01T10:11:33.424Z,14.94
2022-12-01T10:14:37.242Z,14.65
2022-12-01T10:17:47.688Z,15.09
2022-12-01T10:20:59.173Z,15.47
2022-12-01T10:24:13.916Z,15.36
2022-12-01T10:27:47.270Z,15.17
2022-12-01T10:30:53.507Z,15.36
2022-12-01T10:34:06.437Z,14.39
2022-12-01T10:37:25.954Z,13.38
2022-12-01T10:40:29.064Z,13.63
2022-12-01T10:43:39.945Z,13.30
2022-12-01T10:46:52.539Z,13.15
2022-12-01T10:49:56.530Z,13.13
2022-12-01T10:52:59.005Z,12.75
2022-12-01T10:56:11.346Z,12.48
2022-12-01T10:59:36.120Z,12.31
2022-12-01T11:02:39.166Z,12.40
2022-12-01T11:05:42.789Z,12.34
2022-12-01T11:09:00.143Z,12.00
2022-12-01T11:12:04.773Z,11.88
2022-12-01T11:15:08.827Z,12.32
2022-12-01T11:18:28.565Z,12.56
2022-12-01T11:21:31.068Z,12.46
2022-12-01T11:24:42.583Z,12.07
2022-12-01T11:27:50.956Z,12.01
2022-12-01T11:30:58.635Z,11.99
2022-12-01T11:34:01.270Z,11.54
2022-12-01T11:37:07.760Z,11.33
2022-12-01T11:40:28.959Z,10.95
2022-12-01T11:43:37.763Z,10.93
2022-12-01T11:46:50.395Z,10.55
2022-12-01T11:50:00.967Z,10.30
2022-12-01T11:53:04.903Z,10.36
2022-12-01T11:56:13.961Z,10.48
2022-12-01T11:59:21.636Z,10.37
2022-12-01T12:02:35.869Z,10.44
2022-12-01T12:05:57.589Z,10.69
2022-12-01T12:09:40.153Z,10.50
2022-12-01T12:12:53.029Z,10.66
2022-12-01T12:16:13.071Z,10.94
2022-12-01T12:20:06.261Z,10.59
2022-12-01T12:23:21.632Z,10.33
2022-12-01T12:27:00.421Z,10.31
2022-12-01T12:30:06.100Z,10.57
2022-12-01T12:33:23.553Z,10.88
2022-12-01T12:37:05.314Z,11.71
2022-12-01T12:40:29.848Z,12.15
2022-12-01T12:44:00.394Z,12.36
2022-12-01T12:47:34.871Z,11.70
2022-12-01T12:50:53.169Z,10.96
2022-12-01T12:54:15.106Z,10.75
2022-12-01T12:57:29.401Z,10.99
2022-12-01T13:00:34.984Z,10.99
2022-12-01T13:03:48.214Z,11.26
2022-12-01T13:07:00.542Z,11.01
2022-12-01T13:10:28.900Z,10.88
2022-12-01T13:13:37.653Z,10.91
2022-12-01T13:16:44.037Z,10.91
2022-12-01T13:19:48.287Z,10.15
2022-12-01T13:22:52.958Z,9.87
2022-12-01T13:25:59.479Z,9.53
2022-12-01T13:29:06.176Z,9.70
2022-12-01T13:32:38.365Z,9.45
2022-12-01T13:35:40.992Z,9.28
2022-12-01T13:38:44.055Z,9.36
2022-12-01T13:41:56.683Z,9.11
2022-12-01T13:45:10.531Z,8.70
2022-12-01T13:48:38.188Z,8.65
2022-12-01T13:52:19.473Z,8.83
2022-12-01T13:55:28.462Z,8.52
2022-12-01T13:58:33.872Z,8.29
2022-12-01T14:01:46.282Z,8.02
2022-12-01T14:04:49.337Z,7.68
2022-12-01T14:07:54.080Z,7.09
2022-12-01T14:11:01.499Z,6.78
2022-12-01T14:14:24.244Z,6.44
2022-12-01T14:17:34.287Z,6.12
2022-12-01T14:20:45.725Z,5.77
2022-12-01T14:24:05.136Z,5.57
2022-12-01T14:27:10.984Z,5.47
2022-12-01T14:30:42.120Z,5.62
2022-12-01T14:33:57.909Z,5.53
2022-12-01T14:37:26.229Z,5.49
2022-12-01T14:40:30.391Z,5.29
2022-12-01T14:43:51.982Z,5.21
2022-12-01T14:47:06.495Z,4.99
2022-12-01T14:50:35.309Z,4.95
2022-12-01T14:53:44.575Z,4.98
2022-12-01T14:56:51.440Z,4.82
2022-12-01T15:00:14.219Z,4.66
2022-12-01T15:03:16.789Z,4.65
2022-12-01T15:06:21.788Z,4.55
2022-12-01T15:09:33.618Z,4.45
2022-12-01T15:12:37.536Z,4.31
2022-12-01T15:15:51.420Z,4.20
2022-12-01T15:18:54.108Z,4.04
2022-12-01T15:21:59.966Z,3.75
2022-12-01T15:25:20.615Z,3.92
2022-12-01T15:28:33.790Z,3.79
2022-12-01T15:31:36.645Z,3.66
2022-12-01T15:34:44.532Z,3.55
2022-12-01T15:37:47.217Z,3.52
2022-12-01T15:41:21.094Z,3.48
2022-12-01T15:44:26.170Z,3.33
2022-12-01T15:47:46.143Z,3.40
2022-12-01T15:51:04.735Z,3.40
2022-12-01T15:54:20.855Z,3.31
2022-12-01T15:57:24.722Z,3.44
2022-12-01T16:00:28.519Z,3.47
2022-12-01T16:03:31.746Z,3.43
2022-12-01T16:06:37.005Z,3.31
2022-12-01T16:09:55.033Z,3.19
2022-12-01T16:13:34.846Z,3.10
2022-12-01T16:16:43.892Z,3.13
2022-12-01T16:19:48.027Z,3.02
2022-12-01T16:23:02.450Z,3.04
2022-12-01T16:26:08.432Z,2.88
2022-12-01T16:29:25.892Z,2.97
2022-12-01T16:32:38.402Z,2.89
2022-12-01T16:35:40.827Z,2.96
2022-12-01T16:38:43.940Z,2.88
2022-12-01T16:41:47.989Z,2.65
2022-12-01T16:44:52.209Z,2.66
2022-12-01T16:47:55.205Z,2.69
2022-12-01T16:51:02.671Z,2.69
2022-12-01T16:54:06.683Z,2.62
2022-12-01T16:57:09.441Z,2.46
2022-12-01T17:00:12.707Z,2.46
2022-12-01T17:03:16.990Z,2.33
2022-12-01T17:06:20.248Z,2.26
2022-12-01T17:09:23.562Z,2.12
2022-12-01T17:12:26.831Z,2.15
2022-12-01T17:15:29.502Z,2.09
2022-12-01T17:18:35.272Z,2.06
2022-12-01T17:21:38.179Z,1.97
2022-12-01T17:24:41.035Z,1.95
2022-12-01T17:27:44.241Z,1.99
2022-12-01T17:30:47.052Z,1.93
2022-12-01T17:33:50.801Z,1.84
2022-12-01T17:36:53.561Z,1.81
2022-12-01T17:39:56.576Z,1.79
2022-12-01T17:42:59.116Z,1.82
2022-12-01T17:46:02.309Z,1.72
2022-12-01T17:49:09.413Z,1.67
2022-12-01T17:52:12.591Z,1.62
2022-12-01T17:55:15.202Z,1.61
2022-12-01T17:58:21.548Z,1.62
2022-12-01T18:01:30.012Z,1.70
2022-12-01T18:04:33.775Z,1.60
2022-12-01T18:07:36.548Z,1.58
2022-12-01T18:10:39.521Z,1.66
2022-12-01T18:13:47.728Z,1.67
2022-12-01T18:16:50.447Z,1.50
2022-12-01T18:19:53.283Z,1.49
2022-12-01T18:22:56.423Z,1.54
2022-12-01T18:26:12.133Z,1.62
2022-12-01T18:29:26.343Z,1.56
2022-12-01T18:32:29.226Z,1.52
2022-12-01T18:35:32.256Z,1.49
2022-12-01T18:38:34.763Z,1.43
2022-12-01T18:41:38.230Z,1.51
2022-12-01T18:44:42.356Z,1.45
2022-12-01T18:47:45.810Z,1.39
2022-12-01T18:50:48.961Z,1.43
2022-12-01T18:54:00.476Z,1.40
2022-12-01T18:57:03.519Z,1.38
2022-12-01T19:00:07.606Z,1.36
2022-12-01T19:03:10.375Z,1.29
2022-12-01T19:06:13.692Z,1.27
2022-12-01T19:09:17.515Z,1.32
2022-12-01T19:12:20.537Z,1.28
2022-12-01T19:15:23.438Z,1.32
2022-12-01T19:18:25.985Z,1.30
2022-12-01T19:21:29.027Z,1.37
2022-12-01T19:24:35.575Z,1.33
2022-12-01T19:27:39.257Z,1.34
2022-12-01T19:30:47.925Z,1.31
2022-12-01T19:33:53.613Z,1.29
2022-12-01T19:36:57.011Z,1.33
2022-12-01T19:39:59.659Z,1.32
2022-12-01T19:43:02.757Z,1.11
2022-12-01T19:46:15.151Z,1.09
2022-12-01T19:49:18.135Z,1.18
2022-12-01T19:52:21.199Z,1.08
2022-12-01T19:55:23.829Z,0.97
2022-12-01T19:58:28.431Z,1.03
2022-12-01T20:01:32.347Z,0.97
2022-12-01T20:04:38.484Z,1.10
2022-12-01T20:07:41.487Z,1.04
2022-12-01T20:10:49.985Z,1.04
2022-12-01T20:13:53.483Z,1.16
2022-12-01T20:16:56.208Z,1.15
2022-12-01T20:19:59.111Z,1.17
2022-12-01T20:23:02.029Z,1.20
2022-12-01T20:26:07.882Z,1.29
2022-12-01T20:29:28.170Z,1.23
2022-12-01T20:32:36.032Z,1.34
2022-12-01T20:35:38.871Z,1.39
2022-12-01T20:38:42.115Z,1.31
2022-12-01T20:41:45.267Z,1.25
2022-12-01T20:44:49.174Z,1.34
2022-12-01T20:47:52.191Z,1.44
2022-12-01T20:50:55.075Z,1.30
2022-12-01T20:54:26.306Z,1.39
2022-12-01T20:57:20.819Z,1.35
2022-12-01T21:00:23.808Z,1.34
2022-12-01T21:03:27.160Z,1.43
2022-12-01T21:06:29.706Z,1.33
2022-12-01T21:09:32.763Z,1.33
2022-12-01T21:12:54.668Z,1.33
2022-12-01T21:16:04.126Z,1.25
2022-12-01T21:19:15.872Z,1.24
2022-12-01T21:22:19.431Z,1.21
2022-12-01T21:25:24.419Z,1.26
2022-12-01T21:28:27.841Z,1.16
2022-12-01T21:31:32.090Z,1.08
2022-12-01T21:34:35.616Z,1.09
2022-12-01T21:37:38.095Z,1.01
2022-12-01T21:40:43.916Z,0.98
2022-12-01T21:43:46.438Z,0.95
2022-12-01T21:46:56.732Z,0.99
2022-12-01T21:50:08.916Z,0.94
2022-12-01T21:53:16.782Z,0.91
2022-12-01T21:56:25.658Z,0.84
2022-12-01T21:59:28.294Z,0.86
2022-12-01T22:02:48.849Z,0.89
2022-12-01T22:06:27.544Z,0.83
2022-12-01T22:09:34.280Z,0.75
2022-12-01T22:12:37.967Z,0.81
2022-12-01T22:15:41.389Z,0.71
2022-12-01T22:18:55.969Z,0.71
2022-12-01T22:22:10.706Z,0.75
2022-12-01T22:25:27.424Z,0.86
2022-12-01T22:28:30.094Z,0.87
2022-12-01T22:31:32.843Z,0.84
2022-12-01T22:34:35.435Z,0.73
2022-12-01T22:37:45.247Z,0.82
2022-12-01T22:41:13.302Z,0.80
2022-12-01T22:44:16.084Z,0.80
2022-12-01T22:47:18.523Z,0.72
2022-12-01T22:50:28.653Z,0.74
2022-12-01T22:53:31.366Z,0.68
2022-12-01T22:56:43.171Z,0.57
2022-12-01T22:59:47.776Z,0.49
2022-12-01T23:02:53.334Z,0.51
2022-12-01T23:05:57.378Z,0.49
2022-12-01T23:09:00.338Z,0.52
2022-12-01T23:12:30.207Z,0.45
2022-12-01T23:15:41.386Z,0.34
2022-12-01T23:18:43.881Z,0.36
2022-12-01T23:21:46.733Z,0.36
2022-12-01T23:24:49.501Z,0.28
2022-12-01T23:27:54.362Z,0.28
2022-12-01T23:30:59.350Z,0.29
2022-12-01T23:34:02.072Z,0.18
2022-12-01T23:37:15.248Z,0.21
2022-12-01T23:40:26.600Z,0.14
2022-12-01T23:43:34.729Z,0.20
2022-12-01T23:46:37.678Z,0.13
2022-12-01T23:49:40.591Z,0.07
2022-12-01T23:52:43.241Z,0.10
2022-12-01T23:55:45.791Z,0.12
2022-12-01T23:58:48.863Z,0.15
